Aérodrome :
LOGIN :

S'inscrire | Disclaimer

   EN    FR    IT 

 










Légende :    VFR   VFR Marginal   IFR   IFR Intensif   IFR Très Intensif
Visi : 
Plafond : 
>= 8 km
>= 3000ft
5 à 8 km
1000 à 3000 ft
1500m à 5 km
500 à 1000 ft
800 à 1500m
200 à 500 ft
< 800m
< 200 ft
Symboles :   Orages  Brouillard  Fortes neiges  Fortes précipitations  Vent > 20 kt
SIGMETs :   Divers  Orages  Givrage  Turbulence  Onde Orograph.  Cendres Volcan.






- Altitude de l'aérodrome : 179 ft


LIPI - Rivolto AFB Udine

DERNIER METAR :
  • 200755Z VRB02KT CAVOK 20/14 Q1026

METARs EXPIRÉS :
  • 200655Z 08003KT CAVOK 19/13 Q1026 RMK FEW FEW200 VIS MIN 9999 WIND THR06 12003KT WIND THR24 12003KT BLU
  • 200555Z 04004KT CAVOK 17/12 Q1026
  • 200455Z 04003KT CAVOK 15/13 Q1026 RMK SCT SCT200 VIS MIN 9999 WIND THR06 07003KT WIND THR24 06004KT BLU

TAF TAF LIPI
Valide du 20 à 06h jusqu'au 20 à 15h UTC


200500Z 2006/2015 VRB03KT 9999 FEW080



MET'MAP, la Météo Aéronautique d'un coup d'oeil ! - Copyright ORBIFLY Décembre 2007 - Disclaimer

ORBIFLY MET'MAP TEAM :

Programmation & Développement : Alexandra Zaïnal
Sur une idée originale de : Baudouin d'Aumeries
Soutien technique & logistique : Manuel Goepfert
Assistance : Marc-Olivier Méhu

Contact : metmap@orbifly.com




SOURCES & CREDITS :

   NOAA